Time;durP1;ratioP1;P1;durP2;ratioP2;P2;SDS_P1;SDS_P2;PMS_P1;PMS_P2;Temp;Humidity;BMP_temperature;BMP_pressure;BME280_temperature;BME280_humidity;BME280_pressure;Samples;Min_cycle;Max_cycle;Signal;HPM_P1;HPM_P2
2023/03/17 00:01:10;;;;;;;5.97;2.75;;;8.30;45.30;;;;;;5074742;28;20783;-67
2023/03/17 00:03:44;;;;;;;4.57;2.80;;;8.30;37.30;;;;;;5078107;28;20032;-67
2023/03/17 00:06:23;;;;;;;5.47;2.65;;;8.30;50.50;;;;;;5059865;28;20041;-67
2023/03/17 00:08:49;;;;;;;4.35;2.40;;;8.30;42.10;;;;;;5072979;28;20083;-67
2023/03/17 00:11:16;;;;;;;3.03;2.30;;;8.30;37.60;;;;;;5065599;28;20074;-67
2023/03/17 00:13:43;;;;;;;3.35;2.25;;;8.30;37.60;;;;;;5080384;28;20037;-67
2023/03/17 00:16:31;;;;;;;3.65;2.60;;;8.20;37.80;;;;;;5088629;28;20127;-67
2023/03/17 00:18:57;;;;;;;4.43;2.92;;;8.20;42.20;;;;;;5090041;28;20036;-67
2023/03/17 00:21:33;;;;;;;4.50;2.70;;;8.20;55.90;;;;;;5061848;28;20048;-67
2023/03/17 00:24:01;;;;;;;4.43;2.70;;;8.30;44.50;;;;;;5087154;28;20425;-67
2023/03/17 00:26:27;;;;;;;4.53;2.70;;;8.30;37.50;;;;;;5084036;28;20048;-67
2023/03/17 00:28:53;;;;;;;4.50;2.95;;;8.30;43.60;;;;;;5085472;28;20071;-67
2023/03/17 00:31:28;;;;;;;4.75;2.75;;;8.30;33.80;;;;;;5066112;28;20040;-67
2023/03/17 00:33:54;;;;;;;3.45;2.25;;;8.30;36.20;;;;;;5056625;28;20120;-67
2023/03/17 00:36:23;;;;;;;4.13;2.53;;;8.30;32.90;;;;;;5086227;28;20090;-67
2023/03/17 00:38:49;;;;;;;3.78;2.00;;;8.30;33.00;;;;;;5087012;28;20090;-67
2023/03/17 00:41:16;;;;;;;3.28;2.20;;;8.20;35.50;;;;;;5088193;28;20044;-67
2023/03/17 00:43:41;;;;;;;4.47;2.33;;;8.20;35.90;;;;;;5078587;28;20461;-67
2023/03/17 00:46:24;;;;;;;2.67;2.15;;;8.20;47.40;;;;;;5087022;28;20118;-67
2023/03/17 00:48:50;;;;;;;4.10;2.47;;;8.20;43.10;;;;;;5091655;28;20483;-68
2023/03/17 00:51:16;;;;;;;3.55;2.45;;;8.20;44.10;;;;;;5060788;28;20076;-67
2023/03/17 00:53:42;;;;;;;3.33;2.20;;;8.20;36.90;;;;;;5083552;28;20082;-67
2023/03/17 00:56:12;;;;;;;;;;;8.20;39.50;;;;;;5075014;28;20055;-67
2023/03/17 00:58:38;;;;;;;4.07;2.60;;;8.20;40.20;;;;;;5081964;28;19973;-67
2023/03/17 01:01:04;;;;;;;3.67;2.40;;;8.20;38.00;;;;;;5077255;28;20079;-67
2023/03/17 01:03:31;;;;;;;4.60;2.55;;;8.20;36.30;;;;;;5089307;28;20071;-67
2023/03/17 01:05:58;;;;;;;4.63;2.63;;;8.10;47.10;;;;;;5092483;28;20105;-67
2023/03/17 01:08:25;;;;;;;3.22;2.30;;;8.20;36.40;;;;;;5085451;28;20491;-67
2023/03/17 01:10:51;;;;;;;4.63;2.47;;;8.20;33.30;;;;;;5073377;28;20173;-68
2023/03/17 01:13:17;;;;;;;4.20;2.50;;;8.20;40.80;;;;;;5082917;28;20097;-67
2023/03/17 01:15:47;;;;;;;3.42;2.47;;;8.20;38.90;;;;;;5081895;28;20043;-68
2023/03/17 01:18:15;;;;;;;3.08;2.40;;;8.20;30.60;;;;;;5062498;28;20044;-68
2023/03/17 01:20:41;;;;;;;3.47;2.42;;;8.20;32.30;;;;;;5092614;28;20120;-67
2023/03/17 01:23:08;;;;;;;3.63;2.40;;;8.20;39.60;;;;;;5068615;28;20490;-67
2023/03/17 01:25:34;;;;;;;3.85;2.53;;;8.20;43.00;;;;;;5085176;28;20048;-67
2023/03/17 01:28:00;;;;;;;3.17;2.42;;;8.20;38.20;;;;;;5090940;28;20031;-67
2023/03/17 01:30:30;;;;;;;3.38;2.40;;;8.20;33.40;;;;;;5086872;28;20491;-67
2023/03/17 01:32:57;;;;;;;2.70;2.05;;;8.20;29.40;;;;;;5083515;28;20051;-67
2023/03/17 01:35:24;;;;;;;3.83;2.60;;;8.20;37.30;;;;;;5090607;28;20056;-66
2023/03/17 01:37:50;;;;;;;4.22;2.63;;;8.20;25.00;;;;;;5083979;28;20048;-67
2023/03/17 01:40:22;;;;;;;4.95;2.15;;;8.20;22.40;;;;;;5071331;28;20052;-67
2023/03/17 01:42:59;;;;;;;2.92;2.17;;;8.20;26.50;;;;;;5086590;28;20083;-67
2023/03/17 01:46:02;;;;;;;3.72;2.58;;;8.20;34.40;;;;;;5091068;28;20036;-67
2023/03/17 01:48:30;;;;;;;3.78;2.47;;;8.20;31.90;;;;;;5081473;28;20147;-67
2023/03/17 01:50:57;;;;;;;3.60;2.55;;;8.20;25.70;;;;;;5076379;28;20466;-67
2023/03/17 01:53:24;;;;;;;3.17;2.30;;;8.20;27.10;;;;;;5074882;28;20062;-67
2023/03/17 01:55:51;;;;;;;4.50;2.45;;;8.20;24.40;;;;;;5057139;28;20102;-67
2023/03/17 01:58:19;;;;;;;4.30;2.65;;;8.20;21.50;;;;;;5054150;28;20495;-67
2023/03/17 02:00:45;;;;;;;3.83;2.35;;;8.20;20.50;;;;;;5077638;28;20048;-67
2023/03/17 02:03:11;;;;;;;3.63;2.38;;;8.10;24.30;;;;;;5088344;28;20537;-67
2023/03/17 02:05:38;;;;;;;4.63;2.42;;;8.10;32.80;;;;;;5084236;28;20036;-67
2023/03/17 02:08:13;;;;;;;3.85;2.28;;;8.20;32.10;;;;;;5080695;28;20044;-67
2023/03/17 02:10:40;;;;;;;3.65;2.67;;;8.20;23.30;;;;;;5091275;28;20044;-67
2023/03/17 02:13:08;;;;;;;3.60;2.70;;;8.20;22.40;;;;;;5085995;28;20055;-68
2023/03/17 02:15:39;;;;;;;4.43;2.67;;;8.20;23.20;;;;;;5089824;28;20131;-68
2023/03/17 02:18:05;;;;;;;4.82;2.47;;;8.20;16.90;;;;;;5074318;28;20663;-68
2023/03/17 02:20:31;;;;;;;4.45;2.55;;;8.20;15.30;;;;;;5081654;28;20051;-68
2023/03/17 02:22:59;;;;;;;4.47;2.60;;;8.20;16.60;;;;;;5070424;28;20145;-68
2023/03/17 02:25:27;;;;;;;3.78;2.60;;;8.10;23.40;;;;;;5077033;28;20378;-68
2023/03/17 02:27:58;;;;;;;4.15;2.72;;;8.10;36.20;;;;;;5076593;28;20040;-68
2023/03/17 02:30:24;;;;;;;3.75;2.72;;;8.10;27.40;;;;;;5075937;28;20052;-68
2023/03/17 02:32:50;;;;;;;4.40;2.80;;;8.10;24.00;;;;;;5082300;28;20048;-68
2023/03/17 02:35:17;;;;;;;5.53;2.53;;;8.10;21.30;;;;;;5076472;28;20053;-68
2023/03/17 02:37:44;;;;;;;3.63;2.60;;;8.10;23.10;;;;;;5064689;28;20048;-67
2023/03/17 02:40:12;;;;;;;3.00;2.38;;;8.00;27.20;;;;;;5081443;28;20036;-67
2023/03/17 02:42:40;;;;;;;4.35;2.90;;;8.00;29.40;;;;;;5082988;28;20499;-67
2023/03/17 02:45:07;;;;;;;3.05;2.22;;;8.00;25.80;;;;;;5063614;28;20067;-67
2023/03/17 02:47:34;;;;;;;3.40;2.30;;;8.00;33.10;;;;;;5089734;28;20070;-67
2023/03/17 02:50:00;;;;;;;;;;;8.00;32.70;;;;;;5081286;28;20491;-67
2023/03/17 02:52:26;;;;;;;3.65;2.22;;;7.90;36.70;;;;;;5079123;28;19923;-67
2023/03/17 02:54:52;;;;;;;4.38;2.70;;;8.00;29.00;;;;;;5042411;28;20040;-67
2023/03/17 02:57:18;;;;;;;4.47;2.70;;;7.90;28.00;;;;;;5082736;28;20059;-67
2023/03/17 02:59:43;;;;;;;3.13;2.00;;;7.90;31.30;;;;;;5073213;28;20702;-67
2023/03/17 03:02:10;;;;;;;6.10;2.70;;;7.90;29.50;;;;;;5073813;28;20055;-68
2023/03/17 03:04:36;;;;;;;3.13;2.28;;;7.90;27.90;;;;;;5054119;28;20493;-68
2023/03/17 03:07:03;;;;;;;3.83;2.25;;;7.90;29.70;;;;;;5068780;28;20047;-68
2023/03/17 03:09:28;;;;;;;3.38;2.50;;;7.80;37.10;;;;;;5069308;28;20076;-67
2023/03/17 03:11:54;;;;;;;4.07;2.30;;;7.80;32.30;;;;;;5074021;28;20090;-67
2023/03/17 03:14:20;;;;;;;3.50;2.45;;;7.90;29.50;;;;;;5071322;28;20048;-69
2023/03/17 03:16:46;;;;;;;4.72;2.65;;;7.80;32.60;;;;;;5081333;28;20036;-67
2023/03/17 03:19:12;;;;;;;3.85;2.38;;;7.80;35.00;;;;;;5072817;28;20040;-67
2023/03/17 03:21:37;;;;;;;3.42;2.10;;;7.80;34.50;;;;;;5070470;28;20032;-67
2023/03/17 03:24:05;;;;;;;3.05;2.30;;;7.80;46.10;;;;;;5077637;28;20123;-67
2023/03/17 03:26:31;;;;;;;3.50;2.40;;;7.80;34.80;;;;;;5057597;28;20044;-67
2023/03/17 03:28:57;;;;;;;3.97;2.42;;;7.80;36.80;;;;;;5077762;28;20047;-67
2023/03/17 03:31:23;;;;;;;3.30;2.15;;;7.80;36.70;;;;;;5087960;28;20051;-68
2023/03/17 03:33:48;;;;;;;3.33;2.40;;;7.80;35.20;;;;;;5055558;28;20460;-67
2023/03/17 03:36:14;;;;;;;3.35;2.20;;;7.80;30.30;;;;;;5084541;28;20124;-67
2023/03/17 03:38:40;;;;;;;3.60;2.45;;;7.80;28.80;;;;;;5086619;28;20052;-72
2023/03/17 03:41:07;;;;;;;3.50;2.42;;;7.80;27.80;;;;;;5082610;28;20187;-73
2023/03/17 03:43:33;;;;;;;3.55;2.50;;;7.80;30.00;;;;;;5087093;28;20043;-72
2023/03/17 03:45:59;;;;;;;5.82;2.88;;;7.80;29.90;;;;;;5073923;28;20046;-72
2023/03/17 03:48:24;;;;;;;4.95;3.08;;;7.80;47.10;;;;;;5076901;28;20048;-72
2023/03/17 03:50:58;;;;;;;4.55;2.53;;;7.80;41.80;;;;;;5090171;28;20035;-72
2023/03/17 03:53:24;;;;;;;3.97;2.47;;;7.80;35.80;;;;;;5088342;28;20088;-72
2023/03/17 03:55:50;;;;;;;4.05;2.40;;;7.80;34.30;;;;;;5087681;28;20055;-72
2023/03/17 03:58:16;;;;;;;5.03;2.67;;;7.80;37.00;;;;;;5075746;28;20073;-73
2023/03/17 04:00:42;;;;;;;3.85;2.63;;;7.70;39.90;;;;;;5083416;28;20035;-72
2023/03/17 04:03:07;;;;;;;3.40;2.28;;;7.80;40.70;;;;;;5087478;28;20051;-73
2023/03/17 04:05:33;;;;;;;3.53;2.40;;;7.80;36.40;;;;;;5081462;28;20043;-73
2023/03/17 04:07:59;;;;;;;4.57;2.50;;;7.70;38.30;;;;;;5077663;28;20039;-73
2023/03/17 04:10:25;;;;;;;3.08;2.33;;;7.70;45.00;;;;;;5071165;28;20454;-73
2023/03/17 04:12:51;;;;;;;3.78;1.98;;;7.70;41.40;;;;;;5080721;28;20047;-73
2023/03/17 04:15:18;;;;;;;3.85;2.20;;;7.70;42.40;;;;;;5085087;28;20406;-73
2023/03/17 04:17:45;;;;;;;3.33;2.17;;;7.70;52.20;;;;;;5081044;28;20071;-73
2023/03/17 04:20:12;;;;;;;2.72;2.10;;;7.70;38.00;;;;;;5075657;28;20040;-73
2023/03/17 04:22:38;;;;;;;3.45;2.38;;;7.70;36.00;;;;;;5064805;28;20032;-72
2023/03/17 04:25:04;;;;;;;3.45;2.50;;;7.70;37.70;;;;;;5067526;28;20036;-73
2023/03/17 04:27:30;;;;;;;5.28;2.17;;;7.70;35.30;;;;;;5085410;28;20406;-73
2023/03/17 04:29:56;;;;;;;3.40;2.10;;;7.70;35.50;;;;;;5071016;28;20051;-72
2023/03/17 04:32:21;;;;;;;3.10;2.20;;;7.70;41.40;;;;;;5081820;28;20040;-73
2023/03/17 04:34:47;;;;;;;3.40;2.40;;;7.60;40.00;;;;;;5065554;28;20037;-73
2023/03/17 04:37:13;;;;;;;4.53;2.17;;;7.60;44.40;;;;;;5059986;28;20048;-72
2023/03/17 04:39:39;;;;;;;3.50;2.45;;;7.60;41.00;;;;;;5072473;28;20089;-73
2023/03/17 04:42:05;;;;;;;6.20;2.55;;;7.60;42.50;;;;;;5083403;28;20054;-72
2023/03/17 04:44:31;;;;;;;3.53;2.17;;;7.60;48.90;;;;;;5058379;28;20111;-73
2023/03/17 04:46:57;;;;;;;3.28;2.20;;;7.50;51.00;;;;;;5078212;28;20124;-74
2023/03/17 04:49:23;;;;;;;4.47;2.55;;;7.60;42.50;;;;;;5079925;28;20040;-73
2023/03/17 04:51:49;;;;;;;3.95;2.40;;;7.50;39.40;;;;;;5072622;28;20042;-72
2023/03/17 04:54:15;;;;;;;4.10;2.47;;;7.50;43.30;;;;;;5089031;28;20480;-71
2023/03/17 04:56:41;;;;;;;3.63;2.50;;;7.50;42.10;;;;;;5077075;28;20553;-73
2023/03/17 04:59:07;;;;;;;3.17;2.20;;;7.40;44.30;;;;;;5073423;28;20040;-73
2023/03/17 05:01:34;;;;;;;2.88;2.47;;;7.40;43.70;;;;;;5089474;28;20131;-72
2023/03/17 05:04:00;;;;;;;;;;;7.40;53.20;;;;;;5080527;28;20124;-72
2023/03/17 05:06:26;;;;;;;3.08;2.38;;;7.40;52.00;;;;;;5076715;28;20011;-73
2023/03/17 05:08:51;;;;;;;3.55;2.40;;;7.40;51.30;;;;;;5073818;28;20510;-72
2023/03/17 05:11:17;;;;;;;3.00;2.22;;;7.40;50.40;;;;;;5073233;28;20061;-72
2023/03/17 05:13:43;;;;;;;2.85;2.20;;;7.30;48.80;;;;;;5063190;28;20087;-73
2023/03/17 05:16:09;;;;;;;4.90;2.10;;;7.30;49.90;;;;;;5055587;28;20043;-73
2023/03/17 05:18:36;;;;;;;;;;;7.30;48.40;;;;;;5074411;28;20041;-71
2023/03/17 05:21:02;;;;;;;5.60;2.50;;;7.30;47.70;;;;;;5089059;28;20006;-72
2023/03/17 05:23:28;;;;;;;3.05;2.13;;;7.40;44.70;;;;;;5085065;28;20036;-72
2023/03/17 05:25:54;;;;;;;3.72;2.30;;;7.40;45.50;;;;;;5079910;28;20125;-72
2023/03/17 05:28:20;;;;;;;4.05;2.22;;;7.40;45.50;;;;;;5085658;28;21442;-72
2023/03/17 05:30:47;;;;;;;3.95;2.33;;;7.40;43.80;;;;;;5081981;28;20159;-72
2023/03/17 05:33:15;;;;;;;3.05;2.20;;;7.40;59.90;;;;;;5084735;28;20111;-71
2023/03/17 05:35:42;;;;;;;2.75;2.25;;;7.50;47.60;;;;;;5075144;28;20121;-72
2023/03/17 05:38:10;;;;;;;4.60;2.55;;;7.40;48.50;;;;;;5086944;28;20495;-73
2023/03/17 05:40:36;;;;;;;3.67;2.28;;;7.40;49.00;;;;;;5074802;28;20028;-72
2023/03/17 05:43:04;;;;;;;4.60;2.45;;;7.50;51.70;;;;;;5065810;28;20027;-72
2023/03/17 05:45:30;;;;;;;4.03;2.72;;;7.50;47.80;;;;;;5081368;28;20138;-72
2023/03/17 05:47:56;;;;;;;3.30;2.22;;;7.50;49.30;;;;;;5079487;28;20040;-72
2023/03/17 05:50:22;;;;;;;;;;;7.50;55.40;;;;;;5079322;28;20041;-72
2023/03/17 05:52:50;;;;;;;3.83;2.50;;;7.60;61.60;;;;;;5085430;28;20003;-72
2023/03/17 05:55:16;;;;;;;3.55;2.42;;;7.60;50.50;;;;;;5064891;28;20124;-68
2023/03/17 05:57:42;;;;;;;4.53;2.33;;;7.60;48.30;;;;;;5076479;28;20496;-68
2023/03/17 06:00:10;;;;;;;3.65;2.53;;;7.60;52.10;;;;;;5083764;28;20129;-68
2023/03/17 06:02:37;;;;;;;3.58;2.50;;;7.60;50.10;;;;;;5071074;28;20051;-68
2023/03/17 06:05:03;;;;;;;4.63;2.60;;;7.60;48.70;;;;;;5078010;28;20056;-68
2023/03/17 06:07:29;;;;;;;4.07;2.78;;;7.60;48.00;;;;;;5080122;28;20051;-68
2023/03/17 06:09:55;;;;;;;4.50;2.60;;;7.60;45.80;;;;;;5082862;28;20388;-73
2023/03/17 06:12:21;;;;;;;4.38;2.88;;;7.70;55.60;;;;;;5082279;28;20048;-72
2023/03/17 06:14:47;;;;;;;3.47;2.38;;;7.70;49.70;;;;;;5062359;28;20371;-72
2023/03/17 06:17:13;;;;;;;5.82;3.13;;;7.70;50.80;;;;;;5087655;28;20039;-71
2023/03/17 06:19:39;;;;;;;4.40;2.10;;;7.80;47.60;;;;;;5083616;28;20040;-73
2023/03/17 06:22:06;;;;;;;2.92;2.20;;;7.80;48.10;;;;;;5078083;28;20127;-72
2023/03/17 06:24:31;;;;;;;;;;;7.80;45.30;;;;;;5078067;28;20075;-72
2023/03/17 06:26:57;;;;;;;3.58;2.97;;;7.90;42.60;;;;;;5088875;28;19955;-72
2023/03/17 06:29:23;;;;;;;4.45;2.63;;;7.90;45.90;;;;;;5081316;28;20050;-73
2023/03/17 06:31:50;;;;;;;4.75;2.53;;;8.00;40.30;;;;;;5074986;28;20083;-72
2023/03/17 06:34:20;;;;;;;4.10;2.83;;;8.10;46.40;;;;;;5079063;28;20039;-73
2023/03/17 06:36:46;;;;;;;5.28;2.53;;;8.10;38.50;;;;;;5086103;28;20502;-73
2023/03/17 06:39:12;;;;;;;3.75;2.35;;;8.10;34.00;;;;;;5083536;28;20043;-72
2023/03/17 06:41:38;;;;;;;3.60;2.45;;;8.10;39.90;;;;;;5085283;28;20070;-73
2023/03/17 06:44:05;;;;;;;4.32;2.58;;;8.20;54.00;;;;;;5060448;28;20119;-74
2023/03/17 06:46:31;;;;;;;4.85;2.72;;;8.10;35.20;;;;;;5076948;28;20037;-73
2023/03/17 06:48:57;;;;;;;4.80;2.63;;;8.20;39.30;;;;;;5082119;28;20346;-69
2023/03/17 06:51:23;;;;;;;4.47;2.50;;;8.20;33.10;;;;;;5075945;28;20036;-69
2023/03/17 06:53:49;;;;;;;4.65;2.60;;;8.20;40.10;;;;;;5070382;28;20055;-69
2023/03/17 06:56:15;;;;;;;3.53;2.40;;;8.20;30.80;;;;;;5071354;28;20086;-68
2023/03/17 06:58:41;;;;;;;4.30;2.50;;;8.20;50.20;;;;;;5034761;28;20488;-69
2023/03/17 07:01:07;;;;;;;3.70;2.65;;;8.20;40.90;;;;;;5081037;28;20055;-69
2023/03/17 07:03:34;;;;;;;5.10;2.70;;;8.30;41.00;;;;;;5083851;28;20083;-69
2023/03/17 07:06:00;;;;;;;3.45;2.53;;;8.30;41.40;;;;;;5077031;28;20103;-68
2023/03/17 07:08:29;;;;;;;3.97;2.45;;;8.30;34.50;;;;;;5070810;28;20082;-68
2023/03/17 07:10:56;;;;;;;4.28;2.50;;;8.30;33.00;;;;;;5078220;28;20121;-67
2023/03/17 07:13:22;;;;;;;4.07;2.75;;;8.40;36.30;;;;;;5073392;28;20037;-67
2023/03/17 07:15:48;;;;;;;;;;;8.40;29.70;;;;;;5073115;28;20052;-68
2023/03/17 07:18:14;;;;;;;5.63;2.70;;;8.40;30.30;;;;;;5056217;28;19958;-67
2023/03/17 07:20:40;;;;;;;4.10;2.72;;;8.40;30.20;;;;;;5074176;28;20045;-67
2023/03/17 07:23:08;;;;;;;2.95;2.25;;;8.50;33.30;;;;;;5069585;28;20099;-68
2023/03/17 07:25:35;;;;;;;3.85;2.67;;;8.50;34.40;;;;;;5068367;28;20384;-69
2023/03/17 07:28:01;;;;;;;3.50;2.30;;;8.60;31.30;;;;;;5070204;28;20051;-68
2023/03/17 07:30:27;;;;;;;3.40;2.35;;;8.60;35.70;;;;;;5076842;28;20124;-68
2023/03/17 07:32:53;;;;;;;2.97;2.13;;;8.70;38.20;;;;;;5068973;28;20135;-68
2023/03/17 07:35:19;;;;;;;3.58;2.00;;;8.80;34.30;;;;;;5088850;28;20100;-68
2023/03/17 07:37:46;;;;;;;4.28;2.50;;;9.00;38.20;;;;;;5089407;28;20503;-68
2023/03/17 07:40:11;;;;;;;;;;;9.10;41.30;;;;;;5089849;28;20423;-68
2023/03/17 07:42:37;;;;;;;4.05;2.90;;;9.20;25.60;;;;;;5089258;28;19916;-68
2023/03/17 07:45:04;;;;;;;3.95;2.63;;;9.30;17.30;;;;;;5089996;28;20051;-73
2023/03/17 07:47:30;;;;;;;5.07;3.08;;;9.50;17.40;;;;;;5089829;28;20046;-72
2023/03/17 07:49:56;;;;;;;4.25;2.45;;;9.60;11.60;;;;;;5091210;28;20040;-71
2023/03/17 07:52:22;;;;;;;4.50;2.60;;;9.70;16.90;;;;;;5090253;28;20081;-67
2023/03/17 07:54:50;;;;;;;4.65;3.05;;;9.90;21.90;;;;;;5089302;28;20040;-67
2023/03/17 07:57:16;;;;;;;4.15;2.60;;;9.90;12.40;;;;;;5089304;28;20115;-67
2023/03/17 07:59:41;;;;;;;3.58;2.67;;;9.90;1.00;;;;;;5072586;28;20439;-67
2023/03/17 08:02:13;;;;;;;5.75;2.72;;;10.00;12.00;;;;;;5089279;28;20118;-67
2023/03/17 08:04:39;;;;;;;3.78;2.35;;;10.00;11.20;;;;;;5091286;28;20040;-67
2023/03/17 08:07:05;;;;;;;6.03;2.72;;;10.10;5.50;;;;;;5072634;28;20376;-67
2023/03/17 08:09:31;;;;;;;3.30;2.17;;;10.20;10.00;;;;;;5091024;28;20545;-72
2023/03/17 08:11:57;;;;;;;;;;;10.20;1.00;;;;;;5089710;28;20487;-67
2023/03/17 08:14:22;;;;;;;4.10;2.30;;;10.20;1.00;;;;;;5072373;28;19915;-67
2023/03/17 08:16:48;;;;;;;3.42;2.47;;;10.30;1.00;;;;;;5080058;28;20140;-68
2023/03/17 08:19:13;;;;;;;6.90;2.67;;;10.30;1.00;;;;;;5072129;28;20044;-68
2023/03/17 08:21:39;;;;;;;4.15;2.55;;;10.30;1.00;;;;;;5064403;28;20517;-68
2023/03/17 08:24:05;;;;;;;3.63;2.78;;;10.30;1.00;;;;;;5081858;28;20113;-68
2023/03/17 08:26:31;;;;;;;6.30;2.70;;;10.30;1.00;;;;;;5077045;28;20118;-68
2023/03/17 08:28:57;;;;;;;5.05;2.72;;;10.30;1.00;;;;;;5072265;28;20135;-68
2023/03/17 08:31:22;;;;;;;4.15;2.63;;;10.30;1.00;;;;;;5088915;28;20032;-67
2023/03/17 08:33:50;;;;;;;3.90;2.60;;;10.20;1.00;;;;;;5073783;28;20097;-67
2023/03/17 08:36:17;;;;;;;4.82;2.80;;;10.20;1.00;;;;;;5055345;28;20048;-71
2023/03/17 08:38:45;;;;;;;4.15;2.95;;;10.20;1.00;;;;;;5059594;28;20472;-71
2023/03/17 08:41:15;;;;;;;4.32;3.20;;;10.20;1.00;;;;;;5087755;28;20545;-72
2023/03/17 08:43:42;;;;;;;4.75;2.63;;;10.10;1.00;;;;;;5070601;28;20054;-72
2023/03/17 08:46:20;;;;;;;4.28;2.38;;;10.10;4.10;;;;;;5085476;28;20040;-72
2023/03/17 08:48:48;;;;;;;2.95;2.42;;;10.20;7.10;;;;;;5063566;28;20180;-72
2023/03/17 08:51:14;;;;;;;7.32;3.13;;;10.30;2.00;;;;;;5082331;28;20085;-72
2023/03/17 08:53:40;;;;;;;;;;;10.30;1.00;;;;;;5090288;28;20063;-72
2023/03/17 08:56:07;;;;;;;3.72;2.67;;;10.40;2.30;;;;;;5081887;28;20312;-72
2023/03/17 08:58:34;;;;;;;6.03;2.80;;;10.50;1.00;;;;;;5067514;28;20043;-72
2023/03/17 09:01:02;;;;;;;4.63;3.03;;;10.50;1.00;;;;;;5083808;28;20040;-71
2023/03/17 09:03:28;;;;;;;4.80;2.97;;;10.60;1.00;;;;;;5083964;28;20138;-72
2023/03/17 09:05:54;;;;;;;;;;;10.70;1.00;;;;;;5086403;28;20044;-72
2023/03/17 09:08:21;;;;;;;3.88;3.10;;;10.90;1.00;;;;;;5076484;28;20321;-72
2023/03/17 09:10:47;;;;;;;3.88;2.83;;;10.90;1.00;;;;;;5085158;28;20503;-72
2023/03/17 09:13:13;;;;;;;4.45;2.08;;;10.90;1.00;;;;;;5081262;28;20072;-71
2023/03/17 09:15:39;;;;;;;4.05;2.55;;;11.00;1.00;;;;;;5084939;28;20090;-73
2023/03/17 09:18:05;;;;;;;;;;;11.10;1.00;;;;;;5087008;28;20070;-73
2023/03/17 09:20:31;;;;;;;4.03;2.80;;;11.10;1.00;;;;;;5064836;28;19916;-73
2023/03/17 09:22:57;;;;;;;5.75;2.90;;;11.20;1.00;;;;;;5079248;28;20471;-73
2023/03/17 09:25:23;;;;;;;;;;;11.20;1.00;;;;;;5088386;28;20057;-72
2023/03/17 09:27:50;;;;;;;4.43;2.70;;;11.10;1.00;;;;;;5082198;28;20346;-73
2023/03/17 09:30:16;;;;;;;;;;;11.20;1.00;;;;;;5082738;28;20854;-75
2023/03/17 09:32:44;;;;;;;4.82;2.78;;;11.20;1.00;;;;;;5084338;28;19916;-72
2023/03/17 09:35:10;;;;;;;6.78;2.67;;;11.30;1.00;;;;;;5088040;28;20044;-73
2023/03/17 09:37:36;;;;;;;4.07;2.25;;;11.30;1.00;;;;;;5076780;28;20439;-73
2023/03/17 09:40:06;;;;;;;5.60;3.13;;;11.40;1.00;;;;;;5089784;28;20142;-72
2023/03/17 09:42:57;;;;;;;4.45;2.60;;;11.40;1.00;;;;;;5082862;28;20041;-72
2023/03/17 09:45:33;;;;;;;4.63;2.75;;;11.50;1.00;;;;;;5090513;28;20044;-72
2023/03/17 09:48:28;;;;;;;3.78;2.80;;;11.60;1.00;;;;;;5069401;28;20083;-73
2023/03/17 09:51:02;;;;;;;3.35;2.38;;;11.70;1.00;;;;;;5086288;28;20336;-73
2023/03/17 09:53:55;;;;;;;4.13;2.63;;;11.80;1.00;;;;;;5084539;28;20161;-72
2023/03/17 09:56:22;;;;;;;5.32;2.88;;;11.90;1.00;;;;;;5085208;28;20055;-73
2023/03/17 09:58:57;;;;;;;3.63;2.80;;;12.00;1.00;;;;;;5068173;28;20525;-72
2023/03/17 10:01:23;;;;;;;4.70;2.78;;;12.10;1.00;;;;;;5083808;28;20426;-72
2023/03/17 10:03:50;;;;;;;3.45;2.40;;;12.20;1.00;;;;;;5074842;28;20072;-72
2023/03/17 10:06:32;;;;;;;4.25;2.55;;;12.30;1.00;;;;;;5090920;28;20040;-72
2023/03/17 10:09:25;;;;;;;4.90;2.60;;;12.40;1.00;;;;;;5069700;28;20105;-72
2023/03/17 10:12:14;;;;;;;4.75;2.70;;;12.60;1.00;;;;;;5080801;28;20720;-73
2023/03/17 10:15:15;;;;;;;3.10;2.20;;;12.80;1.00;;;;;;5076337;28;20075;-72
2023/03/17 10:17:41;;;;;;;3.65;2.42;;;13.10;1.00;;;;;;5088723;28;20059;-72
2023/03/17 10:20:11;;;;;;;3.95;2.75;;;13.10;1.00;;;;;;5091630;28;20048;-71
2023/03/17 10:23:05;;;;;;;3.50;2.75;;;13.20;1.00;;;;;;5091970;28;20542;-72
2023/03/17 10:25:34;;;;;;;4.22;2.90;;;13.20;1.00;;;;;;5091947;28;20054;-68
2023/03/17 10:28:15;;;;;;;4.35;2.88;;;13.20;1.00;;;;;;5090895;28;20040;-72
2023/03/17 10:30:42;;;;;;;3.97;2.67;;;13.20;1.00;;;;;;5091897;28;20044;-73
2023/03/17 10:33:08;;;;;;;4.32;3.10;;;13.30;1.00;;;;;;5077016;28;20081;-72
2023/03/17 10:35:38;;;;;;;4.65;3.17;;;13.40;1.00;;;;;;5079206;28;20110;-73
2023/03/17 10:38:23;;;;;;;4.72;3.30;;;13.60;1.00;;;;;;5091606;28;20052;-73
2023/03/17 10:41:02;;;;;;;4.82;3.20;;;13.90;1.00;;;;;;5091412;28;20044;-73
2023/03/17 10:43:34;;;;;;;4.47;3.20;;;14.10;1.00;;;;;;5073999;28;20036;-72
2023/03/17 10:46:06;;;;;;;6.72;3.15;;;14.50;1.00;;;;;;5092480;28;20368;-73
2023/03/17 10:48:37;;;;;;;4.55;2.90;;;14.80;1.00;;;;;;5092816;28;20117;-72
2023/03/17 10:51:10;;;;;;;4.28;2.90;;;15.00;1.00;;;;;;5091663;28;20132;-73
2023/03/17 10:53:42;;;;;;;4.35;2.92;;;15.20;1.00;;;;;;5092388;28;20047;-73
2023/03/17 10:56:09;;;;;;;4.50;2.85;;;15.50;1.00;;;;;;5074229;28;20501;-72
2023/03/17 10:58:45;;;;;;;4.50;2.90;;;15.80;1.00;;;;;;5090672;28;20066;-72
2023/03/17 11:01:28;;;;;;;5.78;2.80;;;16.00;1.00;;;;;;5090855;28;20052;-72
2023/03/17 11:03:54;;;;;;;5.85;3.03;;;16.10;1.00;;;;;;5090068;28;20503;-72
2023/03/17 11:06:36;;;;;;;4.15;2.70;;;16.30;1.00;;;;;;5057370;28;20105;-72
2023/03/17 11:09:09;;;;;;;5.30;3.10;;;16.50;1.00;;;;;;5091941;28;20038;-72
2023/03/17 11:11:46;;;;;;;6.75;3.35;;;16.60;1.00;;;;;;5074280;28;20049;-74
2023/03/17 11:14:18;;;;;;;4.88;3.15;;;16.60;99.90;;;;;;5090787;28;20047;-73
2023/03/17 11:16:55;;;;;;;4.55;3.05;;;16.40;99.90;;;;;;5090246;28;20498;-73
2023/03/17 11:19:36;;;;;;;5.25;3.25;;;16.30;99.90;;;;;;5091648;28;20054;-72
2023/03/17 11:22:27;;;;;;;4.10;2.85;;;16.00;99.90;;;;;;5090834;28;20123;-73
2023/03/17 11:25:18;;;;;;;4.00;2.60;;;15.90;1.00;;;;;;5090768;28;20111;-72
2023/03/17 11:27:57;;;;;;;4.68;3.00;;;16.50;1.00;;;;;;5090025;28;20048;-73
2023/03/17 11:30:40;;;;;;;4.05;2.70;;;16.90;1.00;;;;;;5090304;28;20051;-73
2023/03/17 11:33:12;;;;;;;3.78;2.85;;;17.40;99.90;;;;;;5076046;28;20059;-73
2023/03/17 11:35:43;;;;;;;4.07;2.30;;;17.80;99.90;;;;;;5060267;28;20040;-73
2023/03/17 11:38:19;;;;;;;4.72;2.70;;;18.10;99.90;;;;;;5089872;28;20055;-72
2023/03/17 11:41:03;;;;;;;4.38;2.80;;;18.20;99.90;;;;;;5073473;28;20040;-72
2023/03/17 11:43:35;;;;;;;3.38;2.17;;;18.30;99.90;;;;;;5089495;28;20055;-73
2023/03/17 11:46:30;;;;;;;4.15;2.80;;;18.50;99.90;;;;;;5090208;28;20075;-72
2023/03/17 11:49:27;;;;;;;4.05;2.80;;;18.40;99.90;;;;;;5073047;28;20471;-73
2023/03/17 11:52:16;;;;;;;4.47;3.15;;;18.40;99.90;;;;;;5077028;28;20045;-72
2023/03/17 11:54:53;;;;;;;4.13;3.10;;;18.50;99.90;;;;;;5072625;28;20098;-73
2023/03/17 11:57:32;;;;;;;5.65;3.53;;;18.50;99.90;;;;;;5089805;28;20395;-73
2023/03/17 12:00:06;;;;;;;5.60;3.10;;;18.50;99.90;;;;;;5073015;28;20119;-73
2023/03/17 12:02:41;;;;;;;5.57;3.35;;;18.30;99.90;;;;;;5089364;28;20407;-73
2023/03/17 12:05:14;;;;;;;5.32;3.75;;;18.10;99.90;;;;;;5091253;28;20090;-73
2023/03/17 12:07:43;;;;;;;5.72;3.58;;;17.90;99.90;;;;;;5089779;28;20459;-72
2023/03/17 12:10:35;;;;;;;7.15;3.60;;;18.00;99.90;;;;;;5090292;28;20047;-73
2023/03/17 12:13:21;;;;;;;5.72;3.13;;;18.20;99.90;;;;;;5090886;28;20071;-73
2023/03/17 12:15:58;;;;;;;4.38;3.00;;;18.40;99.90;;;;;;5089563;28;20048;-73
2023/03/17 12:18:41;;;;;;;6.65;4.05;;;18.30;99.90;;;;;;5091030;28;20048;-69
2023/03/17 12:21:21;;;;;;;6.43;3.80;;;18.20;99.90;;;;;;5089034;28;20043;-69
2023/03/17 12:23:48;;;;;;;7.00;4.03;;;18.10;99.90;;;;;;5088952;28;20032;-69
2023/03/17 12:26:37;;;;;;;9.38;4.25;;;18.30;99.90;;;;;;5088970;28;20040;-69
2023/03/17 12:29:23;;;;;;;5.60;4.10;;;18.20;99.90;;;;;;5089645;28;20097;-71
2023/03/17 12:32:00;;;;;;;6.35;4.35;;;18.10;99.90;;;;;;5073655;28;20123;-72
2023/03/17 12:34:49;;;;;;;;;;;17.90;99.90;;;;;;5085246;28;20059;-73
2023/03/17 12:37:16;;;;;;;5.70;4.20;;;17.90;99.90;;;;;;5093544;28;20299;-72
2023/03/17 12:39:49;;;;;;;6.72;4.13;;;18.00;99.90;;;;;;5076796;28;20529;-72
2023/03/17 12:42:23;;;;;;;6.25;3.90;;;18.10;99.90;;;;;;5093442;28;20032;-73
2023/03/17 12:45:08;;;;;;;5.90;4.30;;;18.10;99.90;;;;;;5093839;28;20519;-71
2023/03/17 12:47:33;;;;;;;5.97;4.47;;;18.10;99.90;;;;;;5076872;28;20064;-72
2023/03/17 12:50:26;;;;;;;;;;;17.70;99.90;;;;;;5094052;28;20075;-72
2023/03/17 12:53:16;;;;;;;5.97;4.20;;;17.90;99.90;;;;;;5094309;28;19923;-72
2023/03/17 12:55:46;;;;;;;4.85;3.42;;;17.90;99.90;;;;;;5093477;28;20036;-73
2023/03/17 12:58:25;;;;;;;6.20;4.20;;;18.10;99.90;;;;;;5082725;28;20497;-73
2023/03/17 13:01:18;;;;;;;6.97;3.85;;;17.80;99.90;;;;;;5080014;28;20056;-72
2023/03/17 13:04:14;;;;;;;4.47;3.50;;;17.60;99.90;;;;;;5078860;28;20155;-72
2023/03/17 13:07:11;;;;;;;7.25;3.83;;;17.60;99.90;;;;;;5082524;28;20052;-73
2023/03/17 13:10:09;;;;;;;5.93;3.65;;;17.40;99.90;;;;;;5081509;28;20094;-72
2023/03/17 13:13:01;;;;;;;5.53;3.80;;;17.30;99.90;;;;;;5088917;28;20058;-72
2023/03/17 13:15:33;;;;;;;4.35;3.45;;;17.30;99.90;;;;;;5082003;28;20041;-72